KPNO PMTC Data


Display last 80 lines of pmtc.log
This page should refresh every five minutes.
 
All temperatures in Centigrade

                                   Probe    Dew                                                                                                                                                                                                    Set  Flow 
    Date   Time             Humid    Amb   Point    NIB   EIB   SIB   WIB   NOB   EOB   SOB   WOB   NIT   EIT   SIT   WIT   NOT   EOT   SOT   WOT   STS   MHS   MHW   COS   COW   CIB   CIM   CIT   DBS   TSB   TSM   TST   HXI   HXO   HXA   HXD Point Rate   NTT   ETT   WTT   STT   NTB   ETB   WTB   STB   TRS   TRW   CSI   CSO   PCI   PCO   CCI   CCO

Sun May 31 02:46:17 2020 H 31.91 P 22.035 D  4.777 23.3 23.4 23.2 23.2 23.8 23.8 23.6 23.6 23.2 23.3 23.2 23.2 24.0 23.9 23.9 23.9 23.7 23.2 24.7 999.0 999.0 999.0 999.0 999.0 24.0 23.2 23.3 23.5 22.5 22.3 22.4 22.7 16 0.000 23.4 23.4 23.4 22.9 23.4 23.5 23.4 23.5 23.1 23.2 23.9 23.7 23.5 23.4 999.0 23.7 0.0 0.0 0.1 4.53 21.38 0.000 
Sun May 31 02:47:17 2020 H 31.89 P 22.085 D  4.757 23.3 23.4 23.2 23.2 23.8 23.8 23.6 23.7 23.2 23.3 23.2 23.2 24.0 24.0 23.8 23.9 23.6 23.3 24.7 999.0 999.0 999.0 999.0 999.0 24.0 23.3 23.3 23.5 22.5 22.3 22.4 22.7 16 0.000 23.4 23.4 23.3 22.9 23.4 23.5 23.3 23.5 23.1 23.2 23.9 23.7 23.5 23.4 999.0 23.7 0.0 0.0 0.1 4.53 21.38 0.000 
Sun May 31 02:48:17 2020 H 31.91 P 22.085 D  4.753 23.3 23.4 23.2 23.2 23.8 23.8 23.6 23.7 23.2 23.2 23.1 23.1 24.0 24.0 23.8 23.9 23.6 23.2 24.6 999.0 999.0 999.0 999.0 999.0 24.0 23.3 23.2 23.5 22.5 22.3 22.4 22.7 16 0.000 23.4 23.4 23.3 22.9 23.4 23.5 23.3 23.5 23.1 23.2 23.9 23.6 23.6 23.4 999.0 23.7 0.0 0.0 0.1 4.52 21.37 0.000 
Sun May 31 02:49:17 2020 H 31.91 P 22.035 D  4.767 23.3 23.5 23.2 23.2 23.8 23.8 23.6 23.6 23.2 23.3 23.1 23.2 23.9 24.0 23.8 23.9 23.6 23.2 24.6 999.0 999.0 999.0 999.0 999.0 24.0 23.2 23.3 23.5 22.5 22.3 22.4 22.7 16 0.000 23.4 23.3 23.3 22.9 23.2 23.5 23.4 23.4 23.1 23.2 24.0 23.7 23.5 23.4 999.0 23.7 0.0 0.0 0.1 4.52 21.37 0.000 
Sun May 31 02:50:17 2020 H 31.93 P 22.035 D  4.783 23.3 23.5 23.2 23.2 23.8 23.9 23.6 23.7 23.2 23.3 23.2 23.1 24.1 24.0 23.9 23.9 23.6 23.3 24.7 999.0 999.0 999.0 999.0 999.0 24.0 23.3 23.3 23.5 22.5 22.3 22.4 22.8 16 0.000 23.4 23.4 23.4 22.9 23.4 23.4 23.3 23.5 23.0 23.2 23.9 23.7 23.5 23.4 999.0 23.7 0.0 0.0 0.1 4.52 21.37 0.000 
Sun May 31 02:51:17 2020 H 31.98 P 22.035 D  4.780 23.2 23.4 23.3 23.2 23.8 23.8 23.6 23.7 23.2 23.3 23.1 23.2 24.0 24.0 23.9 23.9 23.7 23.3 24.6 999.0 999.0 999.0 999.0 999.0 24.0 23.2 23.3 23.5 22.5 22.3 22.4 22.7 16 0.000 23.3 23.2 23.3 22.9 23.2 23.4 23.4 23.5 23.1 23.2 23.9 23.7 23.6 23.4 999.0 23.7 0.0 0.0 0.1 4.51 21.36 0.000 
Sun May 31 02:52:17 2020 H 31.99 P 22.030 D  4.790 23.3 23.5 23.2 23.2 23.9 23.8 23.5 23.6 23.2 23.3 23.2 23.2 24.0 24.0 23.9 23.9 23.6 23.2 24.7 999.0 999.0 999.0 999.0 999.0 24.0 23.3 23.3 23.5 22.5 22.4 22.4 22.7 16 0.000 23.3 23.4 23.3 22.8 23.3 23.5 23.4 23.4 23.1 23.2 23.9 23.6 23.6 23.5 999.0 23.7 0.0 0.0 0.1 4.51 21.36 0.000 
Sun May 31 02:53:17 2020 H 31.93 P 22.030 D  4.770 23.3 23.4 23.2 23.2 23.8 23.8 23.6 23.6 23.2 23.3 23.2 23.2 24.0 24.0 23.8 23.9 23.6 23.2 24.6 999.0 999.0 999.0 999.0 999.0 24.0 23.2 23.4 23.6 22.5 22.4 22.4 22.6 16 0.000 23.3 23.3 23.3 22.8 23.4 23.4 23.3 23.3 23.1 23.2 24.0 23.7 23.5 23.5 999.0 23.7 0.0 0.0 0.1 4.52 21.37 0.000 
Sun May 31 02:54:17 2020 H 32.00 P 22.030 D  4.800 23.3 23.5 23.3 23.2 23.8 23.8 23.5 23.7 23.2 23.3 23.2 23.2 24.0 24.0 23.9 23.9 23.7 23.3 24.7 999.0 999.0 999.0 999.0 999.0 24.0 23.3 23.2 23.5 22.5 22.3 22.5 22.7 16 0.000 23.3 23.2 23.2 22.8 23.2 23.4 23.2 23.3 23.1 23.2 23.9 23.6 23.6 23.4 999.0 23.7 0.0 0.0 0.1 4.52 21.36 0.000 
Sun May 31 02:55:17 2020 H 31.98 P 22.030 D  4.790 23.3 23.5 23.3 23.2 23.8 23.8 23.6 23.6 23.2 23.3 23.2 23.2 24.0 23.9 23.9 23.9 23.6 23.2 24.7 999.0 999.0 999.0 999.0 999.0 24.0 23.3 23.3 23.5 22.5 22.3 22.4 22.8 16 0.000 23.2 23.2 23.3 22.8 23.3 23.5 23.3 23.3 23.1 23.2 23.9 23.7 23.5 23.5 999.0 23.7 0.0 0.0 0.1 4.52 21.36 0.000 
Sun May 31 02:56:17 2020 H 31.90 P 22.047 D  4.753 23.2 23.5 23.3 23.2 23.8 23.8 23.6 23.6 23.2 23.3 23.2 23.1 24.0 24.0 23.9 23.9 23.6 23.2 24.6 999.0 999.0 999.0 999.0 999.0 24.0 23.3 23.2 23.6 22.6 22.3 22.4 22.7 16 0.000 23.4 23.3 23.3 22.8 23.3 23.4 23.3 23.3 23.0 23.2 24.0 23.7 23.5 23.4 999.0 23.7 0.0 0.0 0.1 4.51 21.37 0.000 
Sun May 31 02:57:17 2020 H 31.93 P 22.035 D  4.773 23.3 23.5 23.3 23.2 23.8 23.8 23.6 23.6 23.2 23.3 23.2 23.2 24.0 24.0 23.9 23.9 23.6 23.2 24.6 999.0 999.0 999.0 999.0 999.0 24.0 23.4 23.2 23.5 22.5 22.3 22.4 22.7 16 0.000 23.2 23.3 23.2 22.8 23.3 23.5 23.2 23.3 23.1 23.2 24.0 23.6 23.6 23.4 999.0 23.7 0.0 0.0 0.1 4.51 21.36 0.000 
Sun May 31 02:58:17 2020 H 32.00 P 22.030 D  4.800 23.3 23.5 23.3 23.2 23.7 23.8 23.6 23.7 23.2 23.3 23.1 23.2 24.0 24.0 23.8 23.9 23.7 23.3 24.6 999.0 999.0 999.0 999.0 999.0 24.0 23.3 23.3 23.6 22.5 22.3 22.4 22.7 16 0.000 23.3 23.3 23.3 22.8 23.3 23.4 23.2 23.4 23.1 23.2 23.9 23.7 23.5 23.4 999.0 23.7 0.0 0.0 0.1 4.51 21.36 0.000 
Sun May 31 02:59:17 2020 H 32.01 P 22.030 D  4.810 23.3 23.4 23.3 23.2 23.8 23.8 23.6 23.6 23.2 23.3 23.2 23.2 24.0 24.0 23.9 23.9 23.6 23.3 24.6 999.0 999.0 999.0 999.0 999.0 24.0 23.2 23.3 23.5 22.5 22.3 22.5 22.7 16 0.000 23.3 23.3 23.2 22.8 23.3 23.4 23.3 23.4 23.1 23.2 23.9 23.6 23.5 23.5 999.0 23.8 0.0 0.0 0.1 4.51 21.35 0.000 
Sun May 31 03:00:17 2020 H 31.93 P 22.030 D  4.777 23.2 23.5 23.4 23.2 23.8 23.8 23.6 23.7 23.2 23.2 23.2 23.2 24.0 23.9 23.8 23.9 23.7 23.2 24.6 999.0 999.0 999.0 999.0 999.0 24.0 23.3 23.2 23.5 22.5 22.3 22.4 22.7 16 0.000 23.3 23.3 23.3 22.8 23.3 23.3 23.3 23.3 23.1 23.2 23.9 23.6 23.5 23.4 999.0 23.7 0.0 0.0 0.1 4.51 21.35 0.000 
Sun May 31 03:01:17 2020 H 31.91 P 22.030 D  4.770 23.3 23.5 23.3 23.2 23.8 23.9 23.6 23.7 23.2 23.3 23.2 23.2 24.1 24.0 23.8 24.0 23.7 23.2 24.6 999.0 999.0 999.0 999.0 999.0 24.0 23.3 23.3 23.5 22.5 22.4 22.4 22.7 16 0.000 23.3 23.3 23.2 22.8 23.3 23.5 23.3 23.4 23.1 23.3 23.9 23.7 23.6 23.4 999.0 23.7 0.0 0.0 0.1 4.50 21.35 0.000 
Sun May 31 03:02:17 2020 H 32.00 P 22.030 D  4.800 23.3 23.5 23.2 23.2 23.8 23.8 23.6 23.6 23.2 23.3 23.2 23.2 24.1 24.0 23.9 23.9 23.6 23.2 24.7 999.0 999.0 999.0 999.0 999.0 24.0 23.2 23.3 23.6 22.5 22.4 22.5 22.7 16 0.000 23.3 23.2 23.2 22.9 23.3 23.4 23.2 23.3 23.1 23.2 23.9 23.7 23.6 23.4 999.0 23.7 0.0 0.0 0.1 4.50 21.35 0.000 
Sun May 31 03:03:17 2020 H 32.00 P 22.030 D  4.800 23.3 23.5 23.2 23.2 23.8 23.8 23.6 23.7 23.2 23.3 23.2 23.2 24.1 24.0 23.9 23.9 23.6 23.3 24.6 999.0 999.0 999.0 999.0 999.0 24.1 23.2 23.3 23.6 22.5 22.3 22.4 22.7 16 0.000 23.3 23.3 23.2 22.9 23.3 23.5 23.2 23.4 23.1 23.2 23.9 23.6 23.5 23.4 999.0 23.7 0.0 0.0 0.1 4.50 21.35 0.000 
Sun May 31 03:04:17 2020 H 32.02 P 22.030 D  4.810 23.3 23.5 23.3 23.2 23.8 23.8 23.6 23.6 23.2 23.3 23.2 23.1 23.9 24.0 23.8 23.9 23.6 23.3 24.7 999.0 999.0 999.0 999.0 999.0 24.0 23.2 23.2 23.6 22.5 22.4 22.5 22.7 16 0.000 23.3 23.2 23.2 22.8 23.3 23.4 23.2 23.4 23.1 23.2 23.9 23.6 23.5 23.5 999.0 23.8 0.0 0.0 0.1 4.49 21.34 0.000 
Sun May 31 03:05:17 2020 H 32.02 P 22.027 D  4.807 23.3 23.5 23.3 23.2 23.8 23.8 23.6 23.6 23.2 23.3 23.2 23.2 24.0 23.9 23.9 23.9 23.7 23.3 24.6 999.0 999.0 999.0 999.0 999.0 24.1 23.3 23.4 23.6 22.5 22.4 22.4 22.7 16 0.000 23.3 23.3 23.3 22.8 23.3 23.4 23.3 23.4 23.1 23.2 24.0 23.6 23.6 23.5 999.0 23.7 0.0 0.0 0.1 4.50 21.35 0.000 
Sun May 31 03:06:17 2020 H 32.02 P 22.030 D  4.813 23.3 23.5 23.3 23.2 23.8 23.9 23.6 23.6 23.2 23.3 23.2 23.1 24.0 24.0 23.9 23.9 23.6 23.2 24.6 999.0 999.0 999.0 999.0 999.0 23.9 23.3 23.3 23.6 22.6 22.3 22.4 22.7 16 0.000 23.3 23.3 23.2 22.8 23.3 23.3 23.3 23.3 23.1 23.2 23.9 23.7 23.5 23.5 999.0 23.7 0.0 0.0 0.1 4.50 21.35 0.000 
Sun May 31 03:07:17 2020 H 32.02 P 22.025 D  4.810 23.3 23.5 23.3 23.3 23.8 23.8 23.6 23.7 23.2 23.3 23.2 23.1 24.0 24.0 23.9 23.9 23.6 23.2 24.6 999.0 999.0 999.0 999.0 999.0 24.0 23.3 23.3 23.6 22.5 22.4 22.4 22.7 16 0.000 23.3 23.3 23.3 22.9 23.3 23.4 23.2 23.3 23.2 23.2 24.0 23.7 23.6 23.5 999.0 23.7 0.0 0.0 0.1 4.50 21.35 0.000 
Sun May 31 03:08:17 2020 H 32.00 P 22.025 D  4.787 23.3 23.5 23.3 23.2 23.8 23.8 23.6 23.7 23.2 23.3 23.2 23.1 23.9 24.0 23.9 23.9 23.6 23.3 24.6 999.0 999.0 999.0 999.0 999.0 24.0 23.3 23.3 23.5 22.5 22.4 22.4 22.7 16 0.000 23.3 23.2 23.2 22.8 23.3 23.4 23.3 23.4 23.1 23.2 23.9 23.6 23.6 23.4 999.0 23.7 0.0 0.0 0.1 4.50 21.35 0.000 
Sun May 31 03:09:17 2020 H 32.01 P 22.025 D  4.797 23.3 23.5 23.3 23.2 23.8 23.8 23.6 23.7 23.2 23.3 23.2 23.0 24.0 24.0 23.8 23.9 23.6 23.2 24.7 999.0 999.0 999.0 999.0 999.0 24.0 23.2 23.3 23.6 22.5 22.4 22.4 22.7 16 0.000 23.3 23.3 23.2 22.8 23.2 23.4 23.2 23.3 23.1 23.2 24.0 23.7 23.6 23.4 999.0 23.7 0.0 0.0 0.1 4.49 21.35 0.000 
Sun May 31 03:10:17 2020 H 32.01 P 22.025 D  4.800 23.4 23.5 23.2 23.2 23.8 23.8 23.6 23.6 23.3 23.3 23.2 23.2 24.0 24.0 23.8 23.9 23.6 23.2 24.7 999.0 999.0 999.0 999.0 999.0 24.0 23.2 23.3 23.6 22.6 22.4 22.5 22.7 16 0.000 23.3 23.2 23.3 22.8 23.3 23.4 23.3 23.3 23.1 23.2 23.9 23.7 23.6 23.5 999.0 23.7 0.0 0.0 0.1 4.48 21.34 0.000 
Sun May 31 03:11:17 2020 H 31.93 P 22.025 D  4.777 23.3 23.5 23.3 23.2 23.9 23.9 23.6 23.6 23.2 23.3 23.2 23.1 23.9 24.0 23.8 23.9 23.6 23.2 24.6 999.0 999.0 999.0 999.0 999.0 24.0 23.3 23.3 23.5 22.5 22.4 22.4 22.7 16 0.000 23.3 23.3 23.2 22.8 23.3 23.4 23.3 23.3 23.1 23.2 24.0 23.7 23.6 23.5 999.0 23.7 0.0 0.0 0.1 4.48 21.34 0.000 
Sun May 31 03:12:17 2020 H 31.95 P 22.030 D  4.780 23.4 23.5 23.2 23.2 23.8 23.8 23.7 23.6 23.2 23.2 23.1 23.1 23.9 24.0 23.8 23.8 23.6 23.3 24.7 999.0 999.0 999.0 999.0 999.0 24.0 23.3 23.3 23.6 22.5 22.4 22.5 22.7 16 0.000 23.3 23.3 23.2 22.9 23.3 23.3 23.3 23.3 23.1 23.2 23.9 23.7 23.7 23.4 999.0 23.7 0.0 0.0 0.1 4.49 21.34 0.000 
Sun May 31 03:13:17 2020 H 31.88 P 22.078 D  4.770 23.4 23.5 23.3 23.2 23.8 23.8 23.6 23.7 23.1 23.2 23.1 23.1 23.9 24.1 23.7 23.9 23.7 23.3 24.7 999.0 999.0 999.0 999.0 999.0 24.0 23.4 23.3 23.5 22.5 22.4 22.5 22.7 16 0.000 23.3 23.2 23.3 22.8 23.4 23.4 23.3 23.3 23.1 23.2 23.9 23.7 23.6 23.4 999.0 23.7 0.0 0.0 0.1 4.48 21.34 0.000 
Sun May 31 03:14:17 2020 H 31.93 P 22.030 D  4.770 23.4 23.5 23.3 23.2 23.8 23.8 23.6 23.7 23.1 23.2 23.1 23.0 24.0 23.9 23.8 23.8 23.6 23.4 24.7 999.0 999.0 999.0 999.0 999.0 24.0 23.4 23.3 23.6 22.5 22.3 22.4 22.8 16 0.000 23.3 23.3 23.2 22.8 23.3 23.4 23.3 23.3 23.1 23.2 23.9 23.6 23.6 23.4 999.0 23.7 0.0 0.0 0.1 4.48 21.34 0.000 
Sun May 31 03:15:17 2020 H 31.93 P 22.030 D  4.777 23.4 23.5 23.3 23.2 23.8 23.8 23.6 23.6 23.2 23.3 23.1 23.1 23.9 23.9 23.7 23.8 23.6 23.3 24.6 999.0 999.0 999.0 999.0 999.0 24.0 23.3 23.2 23.5 22.5 22.3 22.5 22.7 16 0.000 23.3 23.2 23.2 22.9 23.3 23.4 23.2 23.4 23.1 23.1 23.9 23.7 23.6 23.5 999.0 23.7 0.0 0.0 0.1 4.48 21.34 0.000 
Sun May 31 03:16:17 2020 H 31.86 P 22.047 D  4.767 23.3 23.5 23.2 23.2 23.8 23.9 23.6 23.7 23.2 23.2 23.0 23.1 23.9 24.0 23.7 23.8 23.6 23.3 24.6 999.0 999.0 999.0 999.0 999.0 24.0 23.3 23.3 23.6 22.5 22.4 22.5 22.7 16 0.000 23.2 23.2 23.2 22.9 23.3 23.4 23.3 23.4 23.1 23.2 24.0 23.6 23.6 23.5 999.0 23.8 0.0 0.0 0.1 4.48 21.34 0.000 
Sun May 31 03:17:17 2020 H 31.93 P 22.080 D  4.780 23.4 23.5 23.3 23.2 23.8 23.8 23.5 23.6 23.1 23.2 23.1 23.0 23.9 23.9 23.8 23.9 23.6 23.3 24.6 999.0 999.0 999.0 999.0 999.0 24.0 23.3 23.3 23.6 22.5 22.4 22.4 22.7 16 0.000 23.3 23.2 23.2 22.8 23.2 23.4 23.3 23.4 23.1 23.2 24.0 23.6 23.6 23.4 999.0 23.8 0.0 0.0 0.1 4.47 21.34 0.000 
Sun May 31 03:18:17 2020 H 31.93 P 22.082 D  4.773 23.4 23.5 23.3 23.2 23.7 23.8 23.5 23.7 23.1 23.2 23.1 23.1 23.8 23.8 23.7 23.8 23.6 23.3 24.7 999.0 999.0 999.0 999.0 999.0 24.0 23.3 23.3 23.6 22.5 22.3 22.5 22.8 16 0.000 23.3 23.2 23.2 22.9 23.2 23.4 23.2 23.3 23.1 23.2 23.9 23.7 23.6 23.4 999.0 23.7 0.0 0.0 0.1 4.47 21.34 0.000 
Sun May 31 03:19:17 2020 H 31.93 P 22.080 D  4.773 23.3 23.4 23.3 23.2 23.8 23.9 23.5 23.6 23.1 23.2 23.1 23.1 23.9 23.9 23.7 23.9 23.6 23.3 24.6 999.0 999.0 999.0 999.0 999.0 24.0 23.3 23.3 23.5 22.5 22.3 22.4 22.7 16 0.000 23.3 23.2 23.2 22.8 23.3 23.4 23.3 23.4 23.1 23.2 23.9 23.6 23.6 23.4 999.0 23.8 0.0 0.0 0.1 4.47 21.34 0.000 
Sun May 31 03:20:17 2020 H 31.94 P 22.047 D  4.783 23.3 23.4 23.2 23.1 23.8 23.8 23.5 23.7 23.1 23.2 23.1 23.1 23.9 23.9 23.7 23.8 23.6 23.3 24.6 999.0 999.0 999.0 999.0 999.0 24.0 23.3 23.3 23.6 22.5 22.3 22.4 22.7 16 0.000 23.3 23.3 23.2 22.8 23.3 23.4 23.2 23.4 23.1 23.2 23.9 23.7 23.6 23.4 999.0 23.7 0.0 0.0 0.1 4.47 21.33 0.000 
Sun May 31 03:21:17 2020 H 32.00 P 22.030 D  4.800 23.3 23.5 23.2 23.2 23.9 23.8 23.6 23.7 23.1 23.2 23.1 23.1 23.9 23.9 23.8 23.8 23.6 23.3 24.6 999.0 999.0 999.0 999.0 999.0 24.0 23.4 23.3 23.5 22.6 22.4 22.5 22.8 16 0.000 23.2 23.3 23.2 22.8 23.3 23.4 23.2 23.4 23.1 23.3 23.9 23.7 23.6 23.4 999.0 23.8 0.0 0.0 0.1 4.47 21.34 0.000 
Sun May 31 03:22:17 2020 H 31.95 P 22.080 D  4.800 23.3 23.4 23.3 23.1 23.7 23.7 23.6 23.6 23.1 23.2 23.2 23.1 23.9 23.9 23.8 23.8 23.6 23.3 24.6 999.0 999.0 999.0 999.0 999.0 24.1 23.3 23.4 23.5 22.5 22.3 22.5 22.8 16 0.000 23.2 23.3 23.2 22.8 23.3 23.4 23.2 23.3 23.1 23.1 24.0 23.7 23.6 23.5 999.0 23.7 0.0 0.0 0.1 4.46 21.34 0.000 
Sun May 31 03:23:17 2020 H 31.95 P 22.080 D  4.790 23.2 23.5 23.2 23.2 23.8 23.8 23.5 23.7 23.2 23.2 23.1 23.2 23.9 23.8 23.7 23.8 23.6 23.3 24.6 999.0 999.0 999.0 999.0 999.0 24.0 23.3 23.3 23.5 22.6 22.4 22.5 22.7 16 0.000 23.3 23.3 23.2 22.8 23.3 23.4 23.3 23.3 23.1 23.2 23.9 23.7 23.6 23.5 999.0 23.8 0.0 0.0 0.1 4.47 21.34 0.000 
Sun May 31 03:24:17 2020 H 31.95 P 22.080 D  4.790 23.2 23.4 23.2 23.1 23.7 23.7 23.5 23.6 23.0 23.3 23.1 23.1 24.0 23.8 23.8 23.8 23.6 23.4 24.6 999.0 999.0 999.0 999.0 999.0 24.0 23.4 23.3 23.5 22.5 22.3 22.4 22.7 16 0.000 23.2 23.2 23.2 22.8 23.3 23.3 23.3 23.4 23.1 23.2 24.0 23.6 23.6 23.5 999.0 23.7 0.0 0.0 0.1 4.46 21.34 0.000 
Sun May 31 03:25:17 2020 H 31.93 P 22.030 D  4.780 23.3 23.4 23.2 23.1 23.7 23.7 23.6 23.6 23.1 23.2 23.1 23.1 23.9 23.9 23.7 23.7 23.6 23.3 24.6 999.0 999.0 999.0 999.0 999.0 24.0 23.4 23.3 23.5 22.6 22.3 22.4 22.7 16 0.000 23.3 23.2 23.3 22.9 23.3 23.4 23.2 23.4 23.1 23.2 24.0 23.7 23.6 23.5 999.0 23.8 0.0 0.0 0.1 4.46 21.34 0.000 
Sun May 31 03:26:17 2020 H 31.94 P 22.030 D  4.787 23.3 23.4 23.2 23.1 23.7 23.7 23.5 23.6 23.1 23.2 23.1 23.1 23.9 23.8 23.7 23.8 23.6 23.3 24.6 999.0 999.0 999.0 999.0 999.0 24.1 23.3 23.3 23.6 22.5 22.4 22.4 22.7 16 0.000 23.3 23.2 23.2 22.8 23.3 23.4 23.3 23.4 23.1 23.2 23.9 23.6 23.6 23.5 999.0 23.7 0.0 0.0 0.1 4.46 21.34 0.000 
Sun May 31 03:27:17 2020 H 31.94 P 22.030 D  4.787 23.3 23.4 23.2 23.1 23.7 23.7 23.5 23.6 23.1 23.2 23.2 23.1 23.9 23.8 23.7 23.8 23.6 23.3 24.6 999.0 999.0 999.0 999.0 999.0 24.0 23.5 23.2 23.5 22.5 22.4 22.4 22.7 16 0.000 23.2 23.3 23.2 22.8 23.3 23.4 23.2 23.4 23.1 23.2 23.9 23.7 23.6 23.5 999.0 23.7 0.0 0.0 0.1 4.45 21.33 0.000 
Sun May 31 03:28:17 2020 H 31.94 P 22.030 D  4.787 23.3 23.4 23.2 23.1 23.8 23.7 23.6 23.6 23.1 23.2 23.1 23.1 23.9 23.9 23.7 23.8 23.6 23.3 24.6 999.0 999.0 999.0 999.0 999.0 24.0 23.3 23.3 23.6 22.5 22.3 22.5 22.7 16 0.000 23.3 23.2 23.2 22.9 23.2 23.4 23.2 23.4 23.1 23.2 23.9 23.6 23.6 23.5 999.0 23.7 0.0 0.0 0.1 4.45 21.33 0.000 
Sun May 31 03:29:17 2020 H 31.94 P 22.028 D  4.780 23.2 23.4 23.2 23.1 23.7 23.7 23.6 23.6 23.1 23.2 23.1 23.1 23.9 23.9 23.8 23.8 23.6 23.3 24.7 999.0 999.0 999.0 999.0 999.0 24.1 23.3 23.3 23.5 22.5 22.4 22.5 22.8 16 0.000 23.2 23.2 23.3 22.8 23.2 23.4 23.2 23.4 23.2 23.1 23.9 23.6 23.5 23.4 999.0 23.7 0.0 0.0 0.1 4.45 21.33 0.000 
Sun May 31 03:30:17 2020 H 31.95 P 22.025 D  4.783 23.3 23.3 23.2 23.1 23.7 23.7 23.5 23.6 23.1 23.3 23.1 23.1 23.8 23.9 23.8 23.8 23.6 23.2 24.6 999.0 999.0 999.0 999.0 999.0 24.1 23.3 23.3 23.6 22.6 22.4 22.5 22.8 16 0.000 23.3 23.2 23.2 22.8 23.3 23.4 23.3 23.4 23.1 23.2 24.0 23.6 23.5 23.5 999.0 23.7 0.0 0.0 0.1 4.45 21.33 0.000 
Sun May 31 03:31:17 2020 H 31.94 P 22.025 D  4.790 23.2 23.4 23.2 23.2 23.8 23.7 23.5 23.6 23.1 23.2 23.1 23.1 23.9 23.9 23.7 23.8 23.6 23.3 24.6 999.0 999.0 999.0 999.0 999.0 24.0 23.3 23.3 23.5 22.6 22.3 22.5 22.7 16 0.000 23.3 23.2 23.2 22.8 23.2 23.4 23.3 23.4 23.1 23.2 23.9 23.7 23.6 23.5 999.0 23.7 0.0 0.0 0.1 4.45 21.34 0.000 
Sun May 31 03:32:17 2020 H 31.95 P 22.075 D  4.780 23.3 23.4 23.2 23.1 23.7 23.7 23.5 23.6 23.2 23.2 23.1 23.1 23.9 23.8 23.8 23.8 23.6 23.3 24.6 999.0 999.0 999.0 999.0 999.0 24.0 23.3 23.4 23.6 22.5 22.3 22.5 22.7 16 0.000 23.3 23.3 23.1 22.8 23.3 23.3 23.3 23.4 23.1 23.2 23.9 23.7 23.6 23.5 999.0 23.8 0.0 0.0 0.1 4.45 21.33 0.000 
Sun May 31 03:33:17 2020 H 31.93 P 22.025 D  4.780 23.3 23.4 23.2 23.1 23.7 23.8 23.5 23.7 23.1 23.2 23.1 23.1 23.9 23.9 23.8 23.9 23.6 23.3 24.7 999.0 999.0 999.0 999.0 999.0 24.0 23.3 23.3 23.5 22.5 22.3 22.4 22.7 16 0.000 23.2 23.3 23.2 22.8 23.3 23.4 23.2 23.4 23.1 23.2 23.9 23.7 23.6 23.4 999.0 23.8 0.0 0.0 0.1 4.45 21.33 0.000 
Sun May 31 03:34:17 2020 H 31.95 P 22.025 D  4.783 23.3 23.5 23.2 23.1 23.7 23.8 23.6 23.6 23.1 23.2 23.1 23.1 23.9 23.9 23.7 23.8 23.6 23.2 24.6 999.0 999.0 999.0 999.0 999.0 24.1 23.3 23.3 23.5 22.6 22.3 22.4 22.7 16 0.000 23.3 23.2 23.2 22.8 23.3 23.4 23.3 23.4 23.1 23.2 24.0 23.7 23.6 23.5 999.0 23.7 0.0 0.0 0.1 4.44 21.33 0.000 
Sun May 31 03:35:17 2020 H 31.93 P 22.025 D  4.770 23.2 23.4 23.2 23.1 23.7 23.8 23.5 23.6 23.1 23.2 23.1 23.1 23.9 23.9 23.8 23.8 23.6 23.3 24.6 999.0 999.0 999.0 999.0 999.0 24.0 23.4 23.3 23.5 22.6 22.4 22.4 22.7 16 0.000 23.3 23.3 23.2 22.9 23.3 23.4 23.2 23.3 23.2 23.2 23.9 23.7 23.6 23.4 999.0 23.7 0.0 0.0 0.1 4.45 21.34 0.000 
Sun May 31 03:36:17 2020 H 32.00 P 22.025 D  4.793 23.3 23.4 23.3 23.1 23.7 23.7 23.6 23.6 23.1 23.2 23.1 23.1 23.9 23.9 23.7 23.8 23.6 23.3 24.6 999.0 999.0 999.0 999.0 999.0 24.0 23.3 23.3 23.5 22.5 22.4 22.5 22.7 16 0.000 23.2 23.2 23.3 22.9 23.2 23.4 23.2 23.3 23.1 23.2 23.9 23.7 23.6 23.5 999.0 23.7 0.0 0.0 0.1 4.45 21.33 0.000 
Sun May 31 03:37:17 2020 H 32.00 P 22.025 D  4.777 23.3 23.3 23.2 23.1 23.7 23.7 23.6 23.6 23.1 23.2 23.2 23.2 23.9 23.9 23.8 23.8 23.5 23.3 24.6 999.0 999.0 999.0 999.0 999.0 24.1 23.3 23.3 23.6 22.6 22.4 22.4 22.7 16 0.000 23.2 23.2 23.2 22.8 23.2 23.4 23.2 23.4 23.1 23.1 24.0 23.6 23.6 23.4 999.0 23.7 0.0 0.0 0.1 4.45 21.33 0.000 
Sun May 31 03:38:17 2020 H 32.00 P 22.025 D  4.783 23.2 23.4 23.2 23.1 23.7 23.8 23.5 23.6 23.1 23.2 23.2 23.1 23.9 23.9 23.7 23.8 23.6 23.3 24.6 999.0 999.0 999.0 999.0 999.0 24.0 23.3 23.3 23.5 22.5 22.3 22.5 22.7 16 0.000 23.3 23.3 23.2 22.9 23.3 23.4 23.2 23.3 23.1 23.2 23.9 23.6 23.6 23.5 999.0 23.7 0.0 0.0 0.1 4.45 21.34 0.000 
Sun May 31 03:39:17 2020 H 31.95 P 22.025 D  4.780 23.2 23.4 23.2 23.2 23.7 23.8 23.5 23.6 23.1 23.2 23.1 23.2 23.9 23.9 23.7 23.8 23.7 23.3 24.7 999.0 999.0 999.0 999.0 999.0 24.0 23.3 23.3 23.5 22.6 22.4 22.5 22.7 16 0.000 23.2 23.2 23.2 22.8 23.3 23.3 23.3 23.3 23.2 23.1 24.0 23.6 23.6 23.5 999.0 23.7 0.0 0.0 0.1 4.45 21.33 0.000 
Sun May 31 03:40:17 2020 H 31.94 P 22.025 D  4.780 23.3 23.4 23.2 23.2 23.7 23.7 23.5 23.6 23.1 23.2 23.1 23.1 23.9 23.9 23.8 23.8 23.6 23.3 24.6 999.0 999.0 999.0 999.0 999.0 24.1 23.3 23.3 23.6 22.5 22.3 22.5 22.7 16 0.000 23.3 23.3 23.2 22.9 23.3 23.4 23.2 23.3 23.1 23.2 24.0 23.6 23.6 23.5 999.0 23.8 0.0 0.0 0.1 4.45 21.34 0.000 
Sun May 31 03:41:17 2020 H 32.02 P 22.025 D  4.793 23.2 23.4 23.2 23.1 23.7 23.8 23.5 23.6 23.1 23.2 23.1 23.2 24.0 23.9 23.8 23.8 23.6 23.2 24.7 999.0 999.0 999.0 999.0 999.0 24.0 23.3 23.3 23.5 22.5 22.4 22.5 22.8 16 0.000 23.2 23.2 23.2 22.8 23.3 23.4 23.2 23.3 23.1 23.2 23.9 23.6 23.6 23.5 999.0 23.8 0.0 0.0 0.1 4.45 21.34 0.000 
Sun May 31 03:42:17 2020 H 32.03 P 22.025 D  4.807 23.3 23.4 23.3 23.1 23.7 23.7 23.5 23.6 23.1 23.2 23.1 23.1 23.9 23.9 23.7 23.8 23.6 23.3 24.6 999.0 999.0 999.0 999.0 999.0 24.0 23.3 23.3 23.5 22.6 22.3 22.5 22.8 16 0.000 23.3 23.2 23.2 22.8 23.2 23.4 23.2 23.3 23.1 23.2 23.9 23.6 23.6 23.5 999.0 23.7 0.0 0.0 0.1 4.44 21.33 0.000 
Sun May 31 03:43:17 2020 H 32.03 P 22.025 D  4.820 23.3 23.5 23.2 23.2 23.7 23.7 23.5 23.5 23.1 23.2 23.2 23.1 23.9 23.9 23.8 23.8 23.6 23.2 24.7 999.0 999.0 999.0 999.0 999.0 24.0 23.2 23.3 23.6 22.5 22.4 22.5 22.8 16 0.000 23.2 23.2 23.2 22.8 23.3 23.4 23.3 23.4 23.2 23.2 23.9 23.7 23.6 23.5 999.0 23.7 0.0 0.0 0.1 4.45 21.34 0.000 
Sun May 31 03:44:17 2020 H 32.09 P 22.023 D  4.820 23.2 23.4 23.1 23.1 23.7 23.7 23.6 23.6 23.1 23.2 23.1 23.1 23.9 23.9 23.7 23.8 23.6 23.2 24.6 999.0 999.0 999.0 999.0 999.0 24.0 23.3 23.3 23.5 22.6 22.4 22.5 22.7 16 0.000 23.3 23.2 23.2 22.8 23.3 23.4 23.2 23.3 23.1 23.3 23.9 23.7 23.6 23.4 999.0 23.7 0.0 0.0 0.1 4.44 21.33 0.000 
Sun May 31 03:45:17 2020 H 32.09 P 22.020 D  4.820 23.3 23.4 23.2 23.1 23.7 23.8 23.5 23.6 23.2 23.2 23.1 23.1 23.9 23.9 23.7 23.8 23.6 23.2 24.6 999.0 999.0 999.0 999.0 999.0 24.1 23.2 23.4 23.5 22.6 22.4 22.5 22.8 16 0.000 23.2 23.2 23.2 22.8 23.3 23.4 23.2 23.3 23.1 23.0 24.0 23.6 23.6 23.5 999.0 23.7 0.0 0.0 0.1 4.44 21.33 0.000 
Sun May 31 03:46:17 2020 H 32.11 P 22.018 D  4.830 23.2 23.5 23.2 23.2 23.7 23.8 23.5 23.6 23.1 23.3 23.1 23.1 24.0 23.9 23.8 23.8 23.6 23.2 24.6 999.0 999.0 999.0 999.0 999.0 24.1 23.2 23.3 23.5 22.6 22.4 22.4 22.7 16 0.000 23.2 23.2 23.2 22.8 23.3 23.4 23.2 23.4 23.0 23.2 23.8 23.6 23.6 23.5 999.0 23.8 0.0 0.0 0.1 4.45 21.34 0.000 
Sun May 31 03:47:17 2020 H 32.12 P 22.015 D  4.830 23.2 23.4 23.3 23.1 23.7 23.8 23.5 23.6 23.1 23.3 23.2 23.1 23.9 23.9 23.8 23.8 23.6 23.2 24.7 999.0 999.0 999.0 999.0 999.0 24.0 23.2 23.2 23.5 22.5 22.4 22.5 22.7 16 0.000 23.2 23.2 23.2 22.8 23.2 23.4 23.2 23.4 23.1 23.2 24.0 23.6 23.6 23.3 999.0 23.7 0.0 0.0 0.1 4.45 21.34 0.000 
Sun May 31 03:48:17 2020 H 32.18 P 22.015 D  4.840 23.3 23.4 23.2 23.2 23.7 23.8 23.5 23.6 23.1 23.3 23.1 23.1 23.9 23.9 23.7 23.8 23.6 23.2 24.6 999.0 999.0 999.0 999.0 999.0 24.1 23.3 23.2 23.5 22.5 22.3 22.5 22.7 16 0.000 23.2 23.3 23.2 22.8 23.3 23.4 23.2 23.3 23.0 23.2 24.0 23.6 23.5 23.4 999.0 23.6 0.0 0.0 0.1 4.44 21.33 0.000 
Sun May 31 03:49:17 2020 H 32.19 P 22.010 D  4.833 23.3 23.4 23.2 23.2 23.7 23.8 23.5 23.7 23.1 23.2 23.2 23.2 23.9 24.0 23.8 23.8 23.6 23.2 24.6 999.0 999.0 999.0 999.0 999.0 24.0 23.2 23.2 23.5 22.5 22.4 22.4 22.8 16 0.000 23.3 23.2 23.2 22.8 23.2 23.4 23.3 23.4 23.0 23.1 23.9 23.5 23.5 23.5 999.0 23.7 0.0 0.0 0.1 4.44 21.33 0.000 
Sun May 31 03:50:17 2020 H 32.20 P 22.010 D  4.857 23.3 23.5 23.3 23.2 23.7 23.7 23.5 23.6 23.2 23.2 23.1 23.1 23.9 24.0 23.8 23.8 23.6 23.2 24.6 999.0 999.0 999.0 999.0 999.0 24.1 23.3 23.2 23.5 22.5 22.3 22.5 22.8 16 0.000 23.2 23.2 23.2 22.8 23.3 23.4 23.3 23.3 22.9 23.1 23.8 23.6 23.5 23.4 999.0 23.6 0.0 0.0 0.1 4.44 21.33 0.000 
Sun May 31 03:51:17 2020 H 32.20 P 22.010 D  4.837 23.3 23.4 23.3 23.1 23.7 23.8 23.6 23.6 23.2 23.2 23.1 23.1 23.9 23.9 23.8 23.8 23.6 23.2 24.7 999.0 999.0 999.0 999.0 999.0 24.0 23.2 23.2 23.5 22.5 22.3 22.5 22.7 16 0.000 23.3 23.2 23.2 22.8 23.3 23.4 23.2 23.3 23.0 23.1 23.9 23.5 23.5 23.4 999.0 23.6 0.0 0.0 0.1 4.44 21.33 0.000 
Sun May 31 03:52:17 2020 H 32.22 P 21.960 D  4.850 23.3 23.5 23.2 23.2 23.7 23.7 23.6 23.5 23.1 23.2 23.2 23.2 23.9 23.9 23.8 23.9 23.5 23.2 24.6 999.0 999.0 999.0 999.0 999.0 24.1 23.2 23.3 23.5 22.5 22.4 22.4 22.8 16 0.000 23.2 23.2 23.3 22.8 23.3 23.4 23.2 23.3 23.0 23.1 23.8 23.6 23.5 23.4 999.0 23.6 0.0 0.0 0.1 4.44 21.33 0.000 
Sun May 31 03:53:17 2020 H 32.29 P 21.955 D  4.873 23.3 23.5 23.2 23.2 23.7 23.7 23.5 23.6 23.2 23.2 23.1 23.2 23.9 23.9 23.8 23.8 23.6 23.1 24.5 999.0 999.0 999.0 999.0 999.0 24.0 23.2 23.3 23.5 22.5 22.4 22.5 22.7 16 0.000 23.2 23.2 23.2 22.8 23.2 23.4 23.2 23.4 22.9 23.1 23.8 23.5 23.5 23.4 999.0 23.6 0.0 0.0 0.1 4.44 21.33 0.000 
Sun May 31 03:54:17 2020 H 32.31 P 21.950 D  4.890 23.2 23.4 23.2 23.2 23.8 23.7 23.5 23.6 23.2 23.2 23.2 23.1 23.9 24.0 23.8 23.8 23.5 23.1 24.5 999.0 999.0 999.0 999.0 999.0 24.0 23.2 23.3 23.5 22.5 22.4 22.5 22.7 16 0.000 23.2 23.2 23.2 22.8 23.3 23.4 23.3 23.3 23.0 23.1 23.8 23.5 23.5 23.4 999.0 23.6 0.0 0.0 0.1 4.44 21.33 0.000 
Sun May 31 03:55:17 2020 H 32.39 P 21.947 D  4.883 23.3 23.4 23.3 23.2 23.7 23.7 23.5 23.6 23.2 23.2 23.2 23.2 24.0 23.9 23.8 23.8 23.5 23.1 24.5 999.0 999.0 999.0 999.0 999.0 24.0 23.2 23.3 23.5 22.6 22.4 22.5 22.8 16 0.000 23.2 23.2 23.1 22.8 23.2 23.4 23.2 23.3 23.0 23.1 23.9 23.5 23.5 23.4 999.0 23.7 0.0 0.0 0.1 4.44 21.33 0.000 
Sun May 31 03:56:17 2020 H 32.39 P 21.945 D  4.903 23.3 23.5 23.3 23.2 23.8 23.8 23.5 23.7 23.2 23.3 23.1 23.1 23.9 23.9 23.8 23.8 23.5 23.1 24.6 999.0 999.0 999.0 999.0 999.0 24.0 23.2 23.2 23.5 22.5 22.3 22.4 22.8 16 0.000 23.2 23.2 23.2 22.8 23.2 23.4 23.2 23.3 23.0 23.1 23.9 23.5 23.5 23.3 999.0 23.6 0.0 0.0 0.1 4.45 21.33 0.000 
Sun May 31 03:57:17 2020 H 32.40 P 21.943 D  4.900 23.3 23.5 23.2 23.2 23.7 23.8 23.5 23.7 23.2 23.2 23.1 23.1 23.9 23.9 23.7 23.8 23.5 23.1 24.5 999.0 999.0 999.0 999.0 999.0 24.0 23.2 23.3 23.5 22.6 22.4 22.4 22.7 16 0.000 23.3 23.2 23.2 22.8 23.2 23.4 23.2 23.3 23.0 23.1 23.9 23.5 23.5 23.4 999.0 23.6 0.0 0.0 0.1 4.45 21.33 0.000 
Sun May 31 03:58:17 2020 H 32.46 P 21.940 D  4.917 23.3 23.5 23.2 23.1 23.8 23.7 23.5 23.6 23.2 23.3 23.1 23.2 24.0 23.9 23.8 23.8 23.5 23.1 24.6 999.0 999.0 999.0 999.0 999.0 24.1 23.2 23.2 23.5 22.5 22.4 22.5 22.8 16 0.000 23.2 23.2 23.2 22.8 23.2 23.4 23.3 23.4 22.9 23.1 23.8 23.5 23.6 23.4 999.0 23.7 0.0 0.0 0.1 4.45 21.33 0.000 
Sun May 31 03:59:17 2020 H 32.39 P 21.940 D  4.893 23.3 23.5 23.3 23.2 23.7 23.8 23.6 23.6 23.2 23.3 23.2 23.1 23.9 23.9 23.7 23.9 23.5 23.0 24.5 999.0 999.0 999.0 999.0 999.0 24.1 23.2 23.2 23.5 22.5 22.4 22.5 22.7 16 0.000 23.2 23.2 23.1 22.8 23.3 23.4 23.3 23.3 23.0 23.1 23.9 23.5 23.5 23.4 999.0 23.6 0.0 0.0 0.1 4.44 21.33 0.000 
Sun May 31 04:00:17 2020 H 32.31 P 21.957 D  4.870 23.3 23.5 23.2 23.2 23.7 23.8 23.5 23.6 23.1 23.3 23.2 23.2 24.0 23.9 23.8 23.9 23.5 23.1 24.6 999.0 999.0 999.0 999.0 999.0 24.1 23.3 23.2 23.5 22.6 22.4 22.5 22.8 16 0.000 23.2 23.2 23.2 22.8 23.3 23.4 23.2 23.3 22.9 23.1 23.9 23.5 23.5 23.4 999.0 23.7 0.0 0.0 0.1 4.45 21.33 0.000 
Sun May 31 04:01:17 2020 H 32.31 P 21.945 D  4.870 23.3 23.5 23.2 23.2 23.8 23.8 23.6 23.6 23.1 23.2 23.1 23.1 23.9 23.9 23.8 23.9 23.5 23.2 24.6 999.0 999.0 999.0 999.0 999.0 24.1 23.2 23.3 23.5 22.5 22.4 22.5 22.7 16 0.000 23.2 23.2 23.2 22.8 23.2 23.4 23.2 23.3 23.0 23.1 23.9 23.6 23.5 23.4 999.0 23.7 0.0 0.0 0.1 4.45 21.33 0.000 
Sun May 31 04:02:17 2020 H 32.31 P 21.945 D  4.880 23.3 23.5 23.3 23.2 23.7 23.8 23.5 23.6 23.2 23.2 23.1 23.1 23.9 24.0 23.7 23.9 23.5 23.1 24.5 999.0 999.0 999.0 999.0 999.0 24.0 23.2 23.3 23.5 22.5 22.4 22.5 22.7 16 0.000 23.2 23.2 23.2 22.8 23.3 23.4 23.2 23.4 23.0 23.1 23.8 23.6 23.5 23.4 999.0 23.6 0.0 0.0 0.1 4.44 21.32 0.000 
Sun May 31 04:03:17 2020 H 32.29 P 21.995 D  4.857 23.3 23.4 23.2 23.2 23.8 23.8 23.6 23.6 23.1 23.3 23.1 23.2 23.9 24.0 23.7 23.8 23.5 23.1 24.5 999.0 999.0 999.0 999.0 999.0 24.0 23.3 23.3 23.5 22.6 22.4 22.5 22.7 16 0.000 23.2 23.2 23.2 22.8 23.3 23.4 23.2 23.4 23.0 23.1 23.8 23.5 23.5 23.4 999.0 23.6 0.0 0.0 0.1 4.45 21.33 0.000 
Sun May 31 04:04:17 2020 H 32.30 P 21.945 D  4.867 23.3 23.5 23.3 23.2 23.7 23.7 23.5 23.6 23.2 23.3 23.2 23.2 23.9 23.9 23.7 23.8 23.5 23.1 24.6 999.0 999.0 999.0 999.0 999.0 24.1 23.2 23.3 23.4 22.6 22.4 22.5 22.8 16 0.000 23.2 23.3 23.2 22.8 23.3 23.4 23.2 23.3 23.0 23.0 23.8 23.6 23.5 23.3 999.0 23.6 0.0 0.0 0.1 4.45 21.33 0.000 
Sun May 31 04:05:17 2020 H 32.18 P 21.940 D  4.857 23.3 23.5 23.3 23.2 23.8 23.7 23.6 23.6 23.2 23.3 23.2 23.2 23.9 23.9 23.8 23.8 23.5 23.2 24.6 999.0 999.0 999.0 999.0 999.0 24.1 23.3 23.3 23.5 22.5 22.4 22.5 22.7 16 0.000 23.2 23.2 23.2 22.7 23.3 23.4 23.3 23.3 23.0 23.2 23.9 23.6 23.5 23.4 999.0 23.7 0.0 0.0 0.1 4.45 21.32 0.000 

                                Probe  Dew                                                                                                                                                                                                         Set   Flow 
    Date   Time             Humid    Amb   Point    NIB   EIB   SIB   WIB   NOB   EOB   SOB   WOB   NIT   EIT   SIT   WIT   NOT   EOT   SOT   WOT   STS   MHS   MHW   COS   COW   CIB   CIM   CIT   DBS   TSB   TSM   TST   HXI   HXO   HXA   HXD Point Rate   NTT   ETT   WTT   STT   NTB   ETB   WTB   STB   TRS   TRW   CSI   CSO   PCI   PCO   CCI   CCO
Explanation of codes.
These data are provided for the convenience of observers at Kitt Peak. The instruments are not calibrated and the values should be considered as indicative only.

dougw@noao.edu